SBOSBO GEO / SYCJ
Speedbird OnlineSpeedbird Online GEO / SYCJ

Cheddi Jagan International Airport
16:16 29°C

Location Georgetown, Guyana
Latitude: 6.498549938201904
Longitude: -58.25410079956055
Local Time 16:16 on 18 Apr 2024
UTC -4 hours (America/Guyana)
Currency £1 equals GYD 260.44
METAR SYCJ 182000Z 36006KT 9999 FEW015CB SCT090 29/26 Q1007 RERA NOSIG RMK CB-ALQDS
TAF TAF SYCJ 181720Z 1818/1918 03006KT 5000 SHRA FEW016CB BKN017 BKN036 BECMG 1822/1901 06008KT 9999 SCT018 SCT090 TEMPO 1906/1912 5000 SHRA BKN014 BKN032
Weather As Of 18 Apr 2024 16:16
Description Light rain
Wind 11 km/h from North (360°)
Cloud Cover 40%
Precipitation Rain: none, Snow: none
Sunrise 05:43
Sunset 18:00
NOTAM 4 active NOTAM
Rotations During the last 90 days there were
24 flights from UVF
22 flights to UVF
Lounges Roraima Airways Executive Lounge, Main Terminal
Web Airport Website | Wikipedia
Codes IATA: GEO
ICAO: SYCJ
Altitude 29 Meter / 95 Feet
Distance 7,297 KM / 4,534 Miles
from London.
Runways
RunwayLength (m)Surface
062270Asphalt
111525Asphalt
242270Asphalt
291525Asphalt
Radio
TypeDescriptionFrequency
APPTIMEHRI APP119.4
GNDGND121.7
TWRTIMEHRI TWR118.3
Live ATC



Support Speedbird Online

© 2017-2024 Speedbird Online